Terminal Aerodrome Forecast
Issued by NWS Boise, ID

Home | Current Version | Previous Version | Text Only | Print | Product List | Glossary On
Versions: 1 2 3 4 5 6 7 8 9 10 11 12 13 14 15 16 17 18 19 20 21 22 23 24 25 26 27 28 29 30 31 32
000
FTUS45 KBOI 180520
TAFBNO
TAF
KBNO 180520Z 1806/1906 26006KT P6SM SCT090 OVC200
     FM180900 24006KT P6SM VCSH BKN080 OVC150
     FM181200 VRB04KT P6SM SCT080 BKN150
     FM181900 23013KT P6SM SCT080 BKN200
     FM190200 29007KT P6SM FEW080 BKN200=

USA.gov is the U.S. government's official web portal to all federal, state and local government web resources and services.